createdAt,value
2022-10-31T00:00:28.006Z,14.80
2022-10-31T00:02:54.464Z,14.78
2022-10-31T00:05:20.890Z,14.79
2022-10-31T00:07:47.322Z,14.80
2022-10-31T00:10:13.710Z,14.74
2022-10-31T00:12:40.138Z,14.70
2022-10-31T00:15:06.710Z,14.67
2022-10-31T00:17:36.071Z,14.62
2022-10-31T00:20:02.480Z,14.59
2022-10-31T00:22:28.883Z,14.54
2022-10-31T00:24:55.267Z,14.50
2022-10-31T00:27:21.675Z,14.45
2022-10-31T00:29:48.058Z,14.40
2022-10-31T00:32:14.591Z,14.34
2022-10-31T00:34:41.046Z,14.24
2022-10-31T00:37:07.734Z,14.16
2022-10-31T00:39:35.688Z,14.09
2022-10-31T00:42:02.111Z,14.05
2022-10-31T00:44:29.600Z,14.02
2022-10-31T00:46:56.037Z,13.98
2022-10-31T00:49:22.535Z,13.95
2022-10-31T00:51:49.538Z,13.95
2022-10-31T00:54:15.951Z,13.92
2022-10-31T00:56:42.354Z,13.90
2022-10-31T00:59:08.792Z,13.88
2022-10-31T01:01:35.736Z,13.86
2022-10-31T01:04:02.351Z,13.83
2022-10-31T01:06:28.784Z,13.77
2022-10-31T01:08:57.116Z,13.68
2022-10-31T01:11:24.143Z,13.66
2022-10-31T01:13:52.718Z,13.67
2022-10-31T01:16:22.101Z,13.67
2022-10-31T01:18:50.505Z,13.67
2022-10-31T01:21:19.794Z,13.64
2022-10-31T01:23:48.725Z,13.66
2022-10-31T01:26:20.773Z,13.69
2022-10-31T01:29:07.487Z,13.72
2022-10-31T01:31:37.570Z,13.74
2022-10-31T01:34:04.199Z,13.76
2022-10-31T01:36:33.547Z,13.76
2022-10-31T01:39:00.992Z,13.75
2022-10-31T01:41:30.713Z,13.74
2022-10-31T01:44:02.910Z,13.70
2022-10-31T01:46:38.479Z,13.68
2022-10-31T01:49:07.183Z,13.68
2022-10-31T01:51:37.027Z,13.64
2022-10-31T01:54:07.512Z,13.65
2022-10-31T01:56:35.174Z,13.65
2022-10-31T01:59:02.600Z,13.64
2022-10-31T02:01:29.902Z,13.60
2022-10-31T02:03:56.591Z,13.58
2022-10-31T02:06:39.860Z,13.56
2022-10-31T02:09:06.989Z,13.49
2022-10-31T02:11:35.798Z,13.43
2022-10-31T02:14:03.279Z,13.38
2022-10-31T02:16:29.863Z,13.38
2022-10-31T02:18:56.868Z,13.42
2022-10-31T02:21:39.023Z,13.46
2022-10-31T02:24:30.889Z,13.51
2022-10-31T02:27:05.778Z,13.56
2022-10-31T02:29:57.056Z,13.62
2022-10-31T02:32:44.253Z,13.67
2022-10-31T02:35:34.027Z,13.71
2022-10-31T02:38:07.843Z,13.77
2022-10-31T02:40:38.099Z,13.82
2022-10-31T02:44:06.538Z,13.87
2022-10-31T02:46:32.848Z,13.89
2022-10-31T02:49:06.402Z,13.89
2022-10-31T02:51:32.801Z,13.93
2022-10-31T02:53:59.224Z,13.98
2022-10-31T02:56:26.095Z,13.99
2022-10-31T02:58:58.175Z,13.97
2022-10-31T03:01:34.985Z,13.97
2022-10-31T03:04:35.577Z,13.96
2022-10-31T03:07:32.203Z,13.95
2022-10-31T03:10:17.495Z,13.92
2022-10-31T03:13:01.384Z,13.91
2022-10-31T03:15:31.503Z,13.91
2022-10-31T03:18:09.338Z,13.91
2022-10-31T03:20:41.013Z,13.93
2022-10-31T03:23:12.393Z,13.95
2022-10-31T03:25:39.375Z,13.96
2022-10-31T03:28:08.406Z,13.92
2022-10-31T03:30:37.078Z,13.84
2022-10-31T03:33:05.753Z,13.74
2022-10-31T03:35:34.110Z,13.67
2022-10-31T03:38:05.571Z,13.60
2022-10-31T03:40:35.468Z,13.58
2022-10-31T03:43:08.607Z,13.55
2022-10-31T03:45:38.703Z,13.55
2022-10-31T03:48:05.515Z,13.54
2022-10-31T03:50:50.509Z,13.51
2022-10-31T03:53:32.139Z,13.47
2022-10-31T03:56:03.500Z,13.47
2022-10-31T03:58:40.196Z,13.47
2022-10-31T04:01:08.218Z,13.47
2022-10-31T04:03:37.482Z,13.45
2022-10-31T04:06:09.175Z,13.43
2022-10-31T04:08:43.477Z,13.46
2022-10-31T04:11:14.499Z,13.49
2022-10-31T04:13:44.070Z,13.52
2022-10-31T04:16:17.183Z,13.57
2022-10-31T04:18:44.975Z,13.59
2022-10-31T04:21:11.410Z,13.60
2022-10-31T04:23:37.975Z,13.60
2022-10-31T04:26:14.196Z,13.57
2022-10-31T04:28:43.866Z,13.56
2022-10-31T04:31:12.663Z,13.53
2022-10-31T04:33:39.420Z,13.48
2022-10-31T04:36:06.154Z,13.46
2022-10-31T04:38:32.746Z,13.42
2022-10-31T04:40:59.436Z,13.40
2022-10-31T04:43:44.593Z,13.36
2022-10-31T04:46:11.016Z,13.34
2022-10-31T04:48:37.407Z,13.33
2022-10-31T04:51:06.230Z,13.32
2022-10-31T04:53:32.629Z,13.31
2022-10-31T04:56:22.076Z,13.28
2022-10-31T04:58:53.404Z,13.25
2022-10-31T05:01:20.609Z,13.22
2022-10-31T05:03:49.964Z,13.17
2022-10-31T05:06:19.071Z,13.12
2022-10-31T05:08:46.442Z,13.10
2022-10-31T05:11:13.945Z,13.07
2022-10-31T05:13:40.388Z,13.02
2022-10-31T05:16:12.550Z,13.00
2022-10-31T05:18:57.266Z,12.98
2022-10-31T05:21:46.386Z,12.97
2022-10-31T05:24:12.961Z,12.98
2022-10-31T05:26:44.177Z,12.92
2022-10-31T05:29:10.649Z,12.87
2022-10-31T05:31:38.383Z,12.84
2022-10-31T05:34:06.991Z,12.84
2022-10-31T05:36:45.674Z,12.84
2022-10-31T05:39:15.352Z,12.83
2022-10-31T05:41:45.754Z,12.86
2022-10-31T05:44:19.866Z,12.88
2022-10-31T05:47:06.579Z,12.89
2022-10-31T05:49:51.482Z,12.92
2022-10-31T05:52:37.139Z,12.89
2022-10-31T05:55:13.836Z,12.85
2022-10-31T05:57:48.775Z,12.81
2022-10-31T06:00:15.384Z,12.72
2022-10-31T06:02:50.998Z,12.69
2022-10-31T06:05:37.389Z,12.61
2022-10-31T06:08:04.367Z,12.57
2022-10-31T06:10:31.114Z,12.47
2022-10-31T06:12:57.850Z,12.36
2022-10-31T06:15:34.020Z,12.27
2022-10-31T06:18:06.045Z,12.21
2022-10-31T06:20:44.798Z,12.18
2022-10-31T06:23:11.827Z,12.16
2022-10-31T06:25:40.380Z,12.13
2022-10-31T06:28:08.314Z,12.08
2022-10-31T06:30:54.991Z,12.05
2022-10-31T06:33:22.351Z,12.03
2022-10-31T06:36:01.424Z,12.03
2022-10-31T06:38:28.466Z,12.05
2022-10-31T06:40:55.934Z,12.04
2022-10-31T06:43:25.645Z,12.05
2022-10-31T06:46:09.667Z,12.12
2022-10-31T06:48:43.323Z,12.21
2022-10-31T06:51:20.493Z,12.31
2022-10-31T06:53:49.669Z,12.37
2022-10-31T06:56:18.588Z,12.45
2022-10-31T06:58:49.214Z,12.50
2022-10-31T07:01:18.461Z,12.51
2022-10-31T07:03:44.929Z,12.54
2022-10-31T07:06:11.586Z,12.58
2022-10-31T07:08:39.171Z,12.58
2022-10-31T07:11:05.930Z,12.62
2022-10-31T07:13:33.676Z,12.68
2022-10-31T07:16:11.434Z,12.72
2022-10-31T07:18:37.868Z,12.78
2022-10-31T07:21:04.838Z,12.80
2022-10-31T07:23:31.770Z,12.83
2022-10-31T07:26:36.450Z,12.87
2022-10-31T07:29:02.940Z,12.88
2022-10-31T07:31:29.512Z,12.92
2022-10-31T07:34:02.898Z,12.97
2022-10-31T07:36:29.310Z,13.02
2022-10-31T07:39:03.137Z,13.07
2022-10-31T07:41:30.942Z,13.09
2022-10-31T07:43:57.381Z,13.11
2022-10-31T07:46:42.256Z,13.14
2022-10-31T07:49:27.275Z,13.17
2022-10-31T07:52:12.130Z,13.17
2022-10-31T07:54:57.391Z,13.10
2022-10-31T07:57:25.053Z,13.08
2022-10-31T07:59:51.818Z,13.06
2022-10-31T08:02:18.637Z,13.05
2022-10-31T08:04:47.753Z,13.03
2022-10-31T08:10:17.087Z,13.05
2022-10-31T08:12:43.510Z,13.09
2022-10-31T08:15:10.375Z,13.12
2022-10-31T08:17:37.915Z,13.14
2022-10-31T08:20:05.761Z,13.17
2022-10-31T08:22:39.867Z,13.22
2022-10-31T08:25:10.578Z,13.31
2022-10-31T08:27:37.289Z,13.36
2022-10-31T08:30:04.035Z,13.41
2022-10-31T08:32:32.422Z,13.48
2022-10-31T08:35:17.275Z,13.53
2022-10-31T08:38:02.967Z,13.61
2022-10-31T08:40:31.180Z,13.70
2022-10-31T08:43:03.217Z,13.77
2022-10-31T08:45:31.664Z,13.84
2022-10-31T08:48:02.968Z,13.87
2022-10-31T08:50:31.411Z,13.91
2022-10-31T08:53:05.715Z,13.92
2022-10-31T08:55:36.161Z,13.97
2022-10-31T08:58:06.593Z,14.02
2022-10-31T09:00:42.644Z,14.07
2022-10-31T09:03:27.175Z,14.05
2022-10-31T09:05:59.663Z,14.01
2022-10-31T09:08:30.057Z,13.98
2022-10-31T09:10:58.926Z,13.99
2022-10-31T09:13:45.403Z,13.97
2022-10-31T09:16:30.399Z,13.97
2022-10-31T09:18:57.049Z,13.96
2022-10-31T09:21:23.543Z,13.91
2022-10-31T09:23:50.303Z,13.88
2022-10-31T09:26:16.728Z,13.89
2022-10-31T09:28:55.978Z,13.92
2022-10-31T09:31:23.936Z,13.94
2022-10-31T09:33:55.678Z,13.93
2022-10-31T09:36:45.335Z,13.97
2022-10-31T09:39:19.196Z,14.00
2022-10-31T09:42:18.588Z,14.03
2022-10-31T09:44:57.710Z,14.03
2022-10-31T09:47:54.346Z,14.09
2022-10-31T09:50:49.067Z,14.16
2022-10-31T09:53:38.518Z,14.20
2022-10-31T09:56:09.268Z,14.21
2022-10-31T09:58:42.730Z,14.26
2022-10-31T10:01:20.704Z,14.31
2022-10-31T10:03:50.151Z,14.34
2022-10-31T10:06:39.898Z,14.40
2022-10-31T10:09:27.263Z,14.43
2022-10-31T10:12:19.719Z,14.49
2022-10-31T10:15:17.251Z,14.59
2022-10-31T10:17:49.852Z,14.64
2022-10-31T10:20:20.862Z,14.65
2022-10-31T10:22:55.678Z,14.65
2022-10-31T10:25:41.707Z,14.65
2022-10-31T10:28:22.377Z,14.61
2022-10-31T10:30:58.746Z,14.65
2022-10-31T10:33:31.288Z,14.73
2022-10-31T10:36:04.402Z,14.81
2022-10-31T10:38:42.960Z,14.84
2022-10-31T10:41:18.912Z,14.83
2022-10-31T10:47:00.852Z,14.84
2022-10-31T10:49:38.779Z,14.92
2022-10-31T10:55:15.072Z,15.06
2022-10-31T10:57:54.937Z,15.11
2022-10-31T11:00:24.121Z,15.18
2022-10-31T11:02:51.331Z,15.24
2022-10-31T11:05:24.399Z,15.27
2022-10-31T11:07:50.781Z,15.34
2022-10-31T11:10:17.916Z,15.42
2022-10-31T11:12:46.647Z,15.46
2022-10-31T11:15:23.899Z,15.46
2022-10-31T11:17:53.062Z,15.50
2022-10-31T11:20:19.436Z,15.59
2022-10-31T11:22:48.031Z,15.63
2022-10-31T11:25:32.809Z,15.68
2022-10-31T11:28:00.918Z,15.80
2022-10-31T11:30:27.489Z,15.87
2022-10-31T11:32:53.941Z,15.94
2022-10-31T11:35:22.149Z,16.02
2022-10-31T11:37:50.132Z,16.07
2022-10-31T11:40:19.205Z,16.13
2022-10-31T11:42:46.094Z,16.18
2022-10-31T11:45:29.784Z,16.21
2022-10-31T11:47:59.797Z,16.28
2022-10-31T11:50:30.299Z,16.30
2022-10-31T11:52:56.787Z,16.32
2022-10-31T11:55:35.865Z,16.34
2022-10-31T11:58:03.422Z,16.40
2022-10-31T12:00:33.515Z,16.46
2022-10-31T12:03:22.722Z,16.52
2022-10-31T12:05:57.994Z,16.59
2022-10-31T12:08:27.911Z,16.62
2022-10-31T12:11:09.126Z,16.63
2022-10-31T12:13:39.843Z,16.66
2022-10-31T12:16:33.052Z,16.69
2022-10-31T12:19:23.374Z,16.70
2022-10-31T12:22:14.666Z,16.74
2022-10-31T12:24:59.263Z,16.81
2022-10-31T12:27:47.103Z,16.84
2022-10-31T12:30:19.409Z,16.81
2022-10-31T12:32:54.764Z,16.84
2022-10-31T12:35:53.002Z,16.88
2022-10-31T12:38:31.694Z,16.90
2022-10-31T12:41:21.038Z,16.91
2022-10-31T12:44:02.629Z,16.93
2022-10-31T12:46:55.339Z,16.92
2022-10-31T12:49:43.309Z,16.94
2022-10-31T12:52:28.458Z,16.97
2022-10-31T12:55:25.830Z,16.98
2022-10-31T12:57:55.439Z,17.01
2022-10-31T13:00:25.278Z,17.01
2022-10-31T13:03:27.489Z,16.99
2022-10-31T13:05:59.142Z,17.04
2022-10-31T13:08:30.599Z,17.09
2022-10-31T13:11:11.497Z,17.11
2022-10-31T13:13:44.306Z,17.15
2022-10-31T13:16:17.407Z,17.19
2022-10-31T13:18:54.305Z,17.24
2022-10-31T13:21:36.084Z,17.28
2022-10-31T13:24:05.591Z,17.31
2022-10-31T13:26:41.863Z,17.28
2022-10-31T13:29:34.044Z,17.28
2022-10-31T13:32:07.762Z,17.32
2022-10-31T13:34:41.596Z,17.34
2022-10-31T13:37:19.239Z,17.30
2022-10-31T13:40:00.863Z,17.23
2022-10-31T13:42:52.068Z,17.19
2022-10-31T13:45:20.872Z,17.20
2022-10-31T13:48:25.623Z,17.23
2022-10-31T13:51:00.743Z,17.27
2022-10-31T13:53:38.975Z,17.31
2022-10-31T13:56:15.646Z,17.32
2022-10-31T13:59:05.836Z,17.32
2022-10-31T14:01:33.271Z,17.33
2022-10-31T14:04:20.784Z,17.32
2022-10-31T14:07:07.935Z,17.29
2022-10-31T14:09:34.300Z,17.32
2022-10-31T14:12:03.951Z,17.35
2022-10-31T14:14:44.509Z,17.43
2022-10-31T14:17:22.321Z,17.54
2022-10-31T14:20:10.856Z,17.66
2022-10-31T14:22:42.384Z,17.79
2022-10-31T14:25:44.946Z,17.82
2022-10-31T14:28:23.584Z,17.73
2022-10-31T14:30:54.935Z,17.67
2022-10-31T14:33:23.367Z,17.67
2022-10-31T14:35:58.681Z,17.56
2022-10-31T14:38:43.322Z,17.52
2022-10-31T14:41:26.051Z,17.48
2022-10-31T14:44:11.703Z,17.47
2022-10-31T14:47:06.330Z,17.41
2022-10-31T14:50:05.994Z,17.35
2022-10-31T14:52:33.113Z,17.31
2022-10-31T14:55:00.834Z,17.28
2022-10-31T14:57:33.419Z,17.22
2022-10-31T15:00:05.117Z,17.11
2022-10-31T15:02:37.616Z,17.07
2022-10-31T15:05:09.255Z,17.03
2022-10-31T15:07:37.682Z,17.00
2022-10-31T15:10:21.517Z,16.98
2022-10-31T15:12:47.966Z,16.94
2022-10-31T15:15:21.722Z,16.87
2022-10-31T15:17:59.689Z,16.77
2022-10-31T15:20:28.820Z,16.71
2022-10-31T15:22:58.394Z,16.66
2022-10-31T15:25:27.254Z,16.61
2022-10-31T15:27:54.207Z,16.54
2022-10-31T15:30:28.522Z,16.47
2022-10-31T15:32:58.788Z,16.42
2022-10-31T15:35:31.269Z,16.31
2022-10-31T15:37:59.442Z,16.27
2022-10-31T15:40:27.320Z,16.23
2022-10-31T15:43:03.532Z,16.18
2022-10-31T15:45:31.072Z,16.13
2022-10-31T15:48:03.379Z,16.08
2022-10-31T15:50:41.229Z,16.06
2022-10-31T15:53:19.044Z,16.04
2022-10-31T15:56:00.440Z,15.99
2022-10-31T15:58:27.947Z,15.97
2022-10-31T16:01:02.785Z,15.92
2022-10-31T16:03:31.274Z,15.88
2022-10-31T16:06:00.143Z,15.80
2022-10-31T16:08:36.486Z,15.74
2022-10-31T16:11:22.281Z,15.71
2022-10-31T16:13:55.914Z,15.70
2022-10-31T16:16:34.565Z,15.68
2022-10-31T16:19:03.693Z,15.62
2022-10-31T16:21:33.214Z,15.59
2022-10-31T16:24:06.330Z,15.62
2022-10-31T16:26:53.814Z,15.67
2022-10-31T16:29:35.406Z,15.76
2022-10-31T16:32:01.889Z,15.83
2022-10-31T16:34:28.793Z,15.91
2022-10-31T16:36:55.210Z,15.99
2022-10-31T16:39:21.743Z,16.04
2022-10-31T16:41:51.409Z,16.05
2022-10-31T16:44:26.053Z,16.02
2022-10-31T16:47:15.438Z,16.02
2022-10-31T16:49:43.141Z,15.99
2022-10-31T16:52:09.629Z,15.93
2022-10-31T16:54:36.075Z,15.89
2022-10-31T16:57:04.058Z,15.89
2022-10-31T16:59:31.000Z,15.90
2022-10-31T17:01:57.535Z,15.96
2022-10-31T17:04:24.536Z,15.94
2022-10-31T17:06:51.011Z,15.91
2022-10-31T17:09:17.523Z,15.89
2022-10-31T17:11:49.348Z,15.93
2022-10-31T17:14:17.384Z,15.94
2022-10-31T17:16:43.793Z,15.91
2022-10-31T17:19:13.592Z,15.80
2022-10-31T17:21:40.483Z,15.75
2022-10-31T17:24:09.014Z,15.74
2022-10-31T17:26:35.460Z,15.70
2022-10-31T17:29:03.391Z,15.67
2022-10-31T17:31:31.575Z,15.66
2022-10-31T17:34:03.463Z,15.65
2022-10-31T17:36:30.854Z,15.62
2022-10-31T17:38:57.395Z,15.59
2022-10-31T17:41:23.920Z,15.57
2022-10-31T17:43:55.495Z,15.49
2022-10-31T17:46:21.889Z,15.44
2022-10-31T17:48:48.447Z,15.36
2022-10-31T17:51:14.827Z,15.32
2022-10-31T17:53:41.315Z,15.27
2022-10-31T17:56:09.033Z,15.22
2022-10-31T17:58:36.465Z,15.19
2022-10-31T18:01:09.755Z,15.14
2022-10-31T18:03:36.585Z,15.09
2022-10-31T18:06:03.217Z,15.07
2022-10-31T18:08:32.047Z,15.01
2022-10-31T18:11:00.395Z,14.97
2022-10-31T18:13:28.065Z,14.94
2022-10-31T18:15:55.022Z,14.89
2022-10-31T18:18:22.130Z,14.85
2022-10-31T18:20:48.604Z,14.77
2022-10-31T18:23:15.076Z,14.75
2022-10-31T18:25:43.324Z,14.69
2022-10-31T18:28:09.831Z,14.64
2022-10-31T18:30:40.310Z,14.59
2022-10-31T18:33:07.387Z,14.59
2022-10-31T18:35:38.878Z,14.57
2022-10-31T18:38:06.185Z,14.54
2022-10-31T18:40:34.667Z,14.50
2022-10-31T18:43:01.271Z,14.46
2022-10-31T18:45:41.700Z,14.36
2022-10-31T18:48:14.313Z,14.33
2022-10-31T18:50:40.828Z,14.31
2022-10-31T18:53:07.387Z,14.29
2022-10-31T18:55:33.842Z,14.26
2022-10-31T18:58:00.616Z,14.25
2022-10-31T19:00:27.014Z,14.24
2022-10-31T19:02:56.354Z,14.24
2022-10-31T19:05:23.261Z,14.23
2022-10-31T19:07:49.671Z,14.22
2022-10-31T19:10:16.146Z,14.21
2022-10-31T19:12:42.646Z,14.21
2022-10-31T19:15:09.317Z,14.21
2022-10-31T19:17:35.827Z,14.22
2022-10-31T19:20:02.216Z,14.21
2022-10-31T19:22:30.846Z,14.20
2022-10-31T19:24:57.280Z,14.18
2022-10-31T19:27:26.306Z,14.14
2022-10-31T19:29:52.717Z,14.16
2022-10-31T19:32:19.383Z,14.16
2022-10-31T19:34:45.804Z,14.16
2022-10-31T19:37:12.185Z,14.18
2022-10-31T19:39:43.668Z,14.18
2022-10-31T19:42:10.729Z,14.18
2022-10-31T19:44:37.129Z,14.18
2022-10-31T19:47:03.529Z,14.18
2022-10-31T19:49:29.922Z,14.20
2022-10-31T19:51:56.473Z,14.16
2022-10-31T19:54:23.441Z,14.16
2022-10-31T19:56:49.954Z,14.14
2022-10-31T19:59:16.354Z,14.13
2022-10-31T20:01:42.847Z,14.13
2022-10-31T20:04:09.322Z,14.16
2022-10-31T20:06:40.434Z,14.14
2022-10-31T20:09:09.605Z,14.13
2022-10-31T20:11:37.625Z,14.14
2022-10-31T20:14:04.238Z,14.13
2022-10-31T20:16:30.735Z,14.11
2022-10-31T20:18:59.372Z,14.07
2022-10-31T20:21:28.891Z,14.07
2022-10-31T20:24:00.203Z,14.03
2022-10-31T20:26:27.527Z,14.01
2022-10-31T20:28:55.839Z,14.01
2022-10-31T20:31:24.434Z,14.00
2022-10-31T20:33:51.351Z,13.97
2022-10-31T20:36:19.475Z,13.96
2022-10-31T20:38:45.941Z,13.96
2022-10-31T20:41:12.699Z,13.92
2022-10-31T20:43:39.513Z,13.92
2022-10-31T20:46:08.499Z,13.92
2022-10-31T20:48:34.974Z,13.91
2022-10-31T20:51:05.992Z,13.88
2022-10-31T20:53:33.251Z,13.91
2022-10-31T20:56:07.222Z,13.91
2022-10-31T20:58:35.129Z,13.89
2022-10-31T21:01:01.612Z,13.89
2022-10-31T21:03:28.112Z,13.89
2022-10-31T21:06:05.013Z,13.88
2022-10-31T21:08:32.236Z,13.89
2022-10-31T21:10:59.757Z,13.91
2022-10-31T21:13:28.314Z,13.93
2022-10-31T21:16:02.313Z,13.94
2022-10-31T21:18:29.007Z,13.99
2022-10-31T21:20:55.457Z,14.02
2022-10-31T21:23:22.235Z,14.03
2022-10-31T21:25:48.703Z,14.08
2022-10-31T21:28:16.191Z,14.12
2022-10-31T21:30:49.779Z,14.15
2022-10-31T21:33:16.740Z,14.23
2022-10-31T21:35:50.687Z,14.31
2022-10-31T21:38:17.877Z,14.39
2022-10-31T21:40:44.756Z,14.46
2022-10-31T21:43:11.163Z,14.49
2022-10-31T21:45:37.677Z,14.55
2022-10-31T21:48:04.354Z,14.56
2022-10-31T21:50:30.794Z,14.57
2022-10-31T21:53:17.886Z,14.61
2022-10-31T21:55:44.805Z,14.65
2022-10-31T21:58:11.235Z,14.66
2022-10-31T22:00:37.650Z,14.69
2022-10-31T22:03:04.048Z,14.72
2022-10-31T22:05:30.500Z,14.75
2022-10-31T22:07:56.879Z,14.79
2022-10-31T22:10:23.263Z,14.78
2022-10-31T22:12:49.659Z,14.79
2022-10-31T22:15:16.525Z,14.81
2022-10-31T22:17:42.902Z,14.81
2022-10-31T22:20:09.522Z,14.83
2022-10-31T22:22:35.923Z,14.86
2022-10-31T22:25:02.325Z,14.90
2022-10-31T22:27:28.801Z,14.93
2022-10-31T22:29:56.629Z,14.91
2022-10-31T22:32:23.373Z,14.90
2022-10-31T22:34:49.758Z,14.87
2022-10-31T22:37:19.754Z,14.85
2022-10-31T22:39:46.536Z,14.84
2022-10-31T22:42:12.960Z,14.81
2022-10-31T22:44:39.378Z,14.78
2022-10-31T22:47:06.138Z,14.71
2022-10-31T22:49:32.686Z,14.69
2022-10-31T22:52:02.902Z,14.65
2022-10-31T22:54:29.390Z,14.63
2022-10-31T22:56:55.791Z,14.59
2022-10-31T22:59:22.182Z,14.56
2022-10-31T23:01:48.741Z,14.52
2022-10-31T23:04:16.572Z,14.48
2022-10-31T23:06:43.418Z,14.40
2022-10-31T23:09:14.219Z,14.33
2022-10-31T23:11:40.669Z,14.26
2022-10-31T23:14:13.741Z,14.22
2022-10-31T23:16:40.386Z,14.19
2022-10-31T23:19:08.032Z,14.08
2022-10-31T23:21:54.841Z,14.02
2022-10-31T23:24:31.637Z,13.98
2022-10-31T23:27:10.795Z,13.96
2022-10-31T23:29:38.466Z,13.96
2022-10-31T23:32:06.643Z,13.96
2022-10-31T23:34:33.183Z,13.95
2022-10-31T23:36:59.696Z,13.97
2022-10-31T23:39:26.513Z,13.98
2022-10-31T23:41:52.979Z,13.98
2022-10-31T23:44:20.962Z,13.99
2022-10-31T23:46:47.594Z,13.98
2022-10-31T23:49:14.026Z,13.97
2022-10-31T23:51:40.446Z,13.95
2022-10-31T23:54:07.068Z,13.98
2022-10-31T23:56:33.521Z,14.05
2022-10-31T23:58:59.977Z,14.15
